createdAt,value
2019-05-25T00:00:26.114Z,3.10
2019-05-25T00:02:56.509Z,3.20
2019-05-25T00:05:26.852Z,2.97
2019-05-25T00:07:57.933Z,3.50
2019-05-25T00:10:28.507Z,3.30
2019-05-25T00:12:58.855Z,3.20
2019-05-25T00:15:29.181Z,3.43
2019-05-25T00:17:59.618Z,3.70
2019-05-25T00:20:29.939Z,4.00
2019-05-25T00:23:00.295Z,3.40
2019-05-25T00:25:30.767Z,4.27
2019-05-25T00:28:02.559Z,4.00
2019-05-25T00:30:32.904Z,3.60
2019-05-25T00:33:03.287Z,3.53
2019-05-25T00:35:33.897Z,3.53
2019-05-25T00:38:05.411Z,3.70
2019-05-25T00:40:35.757Z,4.50
2019-05-25T00:43:06.011Z,4.70
2019-05-25T00:45:36.283Z,4.33
2019-05-25T00:48:06.691Z,4.40
2019-05-25T00:50:37.713Z,3.80
2019-05-25T00:53:08.118Z,4.00
2019-05-25T00:55:38.547Z,3.93
2019-05-25T00:58:08.882Z,4.20
2019-05-25T01:00:39.346Z,4.20
2019-05-25T01:03:09.782Z,4.50
2019-05-25T01:05:40.181Z,4.30
2019-05-25T01:08:10.517Z,4.20
2019-05-25T01:10:40.841Z,4.00
2019-05-25T01:13:11.270Z,4.17
2019-05-25T01:15:41.614Z,3.80
2019-05-25T01:18:11.953Z,3.93
2019-05-25T01:20:42.380Z,4.50
2019-05-25T01:23:12.714Z,4.13
2019-05-25T01:25:43.006Z,4.50
2019-05-25T01:28:13.278Z,4.70
2019-05-25T01:30:43.729Z,4.50
2019-05-25T01:33:14.169Z,4.47
2019-05-25T01:35:44.420Z,4.20
2019-05-25T01:38:14.790Z,4.27
2019-05-25T01:40:45.117Z,4.43
2019-05-25T01:43:15.395Z,4.47
2019-05-25T01:45:45.648Z,4.10
2019-05-25T01:48:16.056Z,4.63
2019-05-25T01:50:46.498Z,4.70
2019-05-25T01:53:17.692Z,4.23
2019-05-25T01:55:48.097Z,4.50
2019-05-25T01:58:18.336Z,4.40
2019-05-25T02:00:48.733Z,4.70
2019-05-25T02:03:19.153Z,4.30
2019-05-25T02:05:49.577Z,4.40
2019-05-25T02:08:19.902Z,4.10
2019-05-25T02:10:50.244Z,4.17
2019-05-25T02:13:20.708Z,4.33
2019-05-25T02:15:51.185Z,4.47
2019-05-25T02:18:21.518Z,4.10
2019-05-25T02:20:51.893Z,4.60
2019-05-25T02:23:22.289Z,4.40
2019-05-25T02:25:52.629Z,4.53
2019-05-25T02:28:22.962Z,4.57
2019-05-25T02:30:53.257Z,4.30
2019-05-25T02:33:23.598Z,4.97
2019-05-25T02:35:54.006Z,4.60
2019-05-25T02:38:24.326Z,4.57
2019-05-25T02:40:54.864Z,4.63
2019-05-25T02:43:25.222Z,4.60
2019-05-25T02:45:55.642Z,5.27
2019-05-25T02:48:26.054Z,4.23
2019-05-25T02:50:56.409Z,4.23
2019-05-25T02:53:26.724Z,4.00
2019-05-25T02:55:57.135Z,4.60
2019-05-25T02:58:28.496Z,4.87
2019-05-25T03:00:59.015Z,4.77
2019-05-25T03:03:29.627Z,5.07
2019-05-25T03:06:02.914Z,4.73
2019-05-25T03:08:33.831Z,5.13
2019-05-25T03:11:06.227Z,5.03
2019-05-25T03:13:36.548Z,5.67
2019-05-25T03:16:06.899Z,5.43
2019-05-25T03:18:38.253Z,5.33
2019-05-25T03:21:08.655Z,5.20
2019-05-25T03:23:39.087Z,5.80
2019-05-25T03:26:09.367Z,5.60
2019-05-25T03:28:39.724Z,5.80
2019-05-25T03:31:10.008Z,5.87
2019-05-25T03:33:40.355Z,5.60
2019-05-25T03:36:10.720Z,5.93
2019-05-25T03:38:41.748Z,5.80
2019-05-25T03:41:12.332Z,6.30
2019-05-25T03:43:42.591Z,6.30
2019-05-25T03:46:13.010Z,6.53
2019-05-25T03:48:43.357Z,5.97
2019-05-25T03:51:13.616Z,6.60
2019-05-25T03:53:43.996Z,5.90
2019-05-25T03:56:14.412Z,6.10
2019-05-25T03:58:44.768Z,5.77
2019-05-25T04:01:15.148Z,5.83
2019-05-25T04:03:45.397Z,6.07
2019-05-25T04:06:15.643Z,6.47
2019-05-25T04:08:45.915Z,6.87
2019-05-25T04:11:16.242Z,6.50
2019-05-25T04:13:46.526Z,6.97
2019-05-25T04:16:16.770Z,6.63
2019-05-25T04:18:47.302Z,6.60
2019-05-25T04:21:17.570Z,6.87
2019-05-25T04:23:47.893Z,7.47
2019-05-25T04:26:22.441Z,7.20
2019-05-25T04:28:50.314Z,7.30
2019-05-25T04:31:20.677Z,7.10
2019-05-25T04:33:50.952Z,7.37
2019-05-25T04:36:21.306Z,7.33
2019-05-25T04:38:51.680Z,7.50
2019-05-25T04:41:21.942Z,8.10
2019-05-25T04:43:52.227Z,8.00
2019-05-25T04:46:22.584Z,7.87
2019-05-25T04:48:52.925Z,8.33
2019-05-25T04:51:23.248Z,8.23
2019-05-25T04:53:53.540Z,8.13
2019-05-25T04:56:38.273Z,7.90
2019-05-25T04:58:55.921Z,7.80
2019-05-25T05:01:26.422Z,7.90
2019-05-25T05:03:57.654Z,7.83
2019-05-25T05:06:28.022Z,7.33
2019-05-25T05:08:58.334Z,8.20
2019-05-25T05:11:28.749Z,7.53
2019-05-25T05:13:59.146Z,7.50
2019-05-25T05:16:29.758Z,7.27
2019-05-25T05:19:00.050Z,7.63
2019-05-25T05:21:31.154Z,6.83
2019-05-25T05:24:02.900Z,7.83
2019-05-25T05:26:33.409Z,8.00
2019-05-25T05:29:04.416Z,7.27
2019-05-25T05:31:35.792Z,7.50
2019-05-25T05:34:06.319Z,7.50
2019-05-25T05:36:37.234Z,6.83
2019-05-25T05:39:08.301Z,6.50
2019-05-25T05:41:39.284Z,7.03
2019-05-25T05:44:09.732Z,6.70
2019-05-25T05:46:41.430Z,7.23
2019-05-25T05:49:13.806Z,7.57
2019-05-25T05:51:47.426Z,7.20
2019-05-25T05:54:19.243Z,7.23
2019-05-25T05:56:49.967Z,7.57
2019-05-25T05:59:20.254Z,6.83
2019-05-25T06:01:50.546Z,6.73
2019-05-25T06:04:20.965Z,6.00
2019-05-25T06:06:51.225Z,5.57
2019-05-25T06:09:21.518Z,5.90
2019-05-25T06:11:51.870Z,5.77
2019-05-25T06:14:22.310Z,6.13
2019-05-25T06:16:52.650Z,6.47
2019-05-25T06:19:22.994Z,5.90
2019-05-25T06:21:53.266Z,6.17
2019-05-25T06:24:23.618Z,6.10
2019-05-25T06:26:54.714Z,5.77
2019-05-25T06:29:25.168Z,5.23
2019-05-25T06:31:55.511Z,5.53
2019-05-25T06:34:25.876Z,4.67
2019-05-25T06:36:56.302Z,5.27
2019-05-25T06:39:26.567Z,4.77
2019-05-25T06:41:56.919Z,5.13
2019-05-25T06:44:27.263Z,5.23
2019-05-25T06:46:57.621Z,4.90
2019-05-25T06:49:27.967Z,5.53
2019-05-25T06:51:58.304Z,5.43
2019-05-25T06:54:28.567Z,4.90
2019-05-25T06:56:58.937Z,5.50
2019-05-25T06:59:29.299Z,5.23
2019-05-25T07:01:59.687Z,4.33
2019-05-25T07:04:30.044Z,4.87
2019-05-25T07:07:00.388Z,4.60
2019-05-25T07:09:32.191Z,4.70
2019-05-25T07:12:04.598Z,4.57
2019-05-25T07:14:34.956Z,5.37
2019-05-25T07:17:05.382Z,5.60
2019-05-25T07:19:35.727Z,6.03
2019-05-25T07:22:06.084Z,5.33
2019-05-25T07:24:36.347Z,5.30
2019-05-25T07:27:06.675Z,4.60
2019-05-25T07:29:37.032Z,4.67
2019-05-25T07:32:07.447Z,4.23
2019-05-25T07:34:37.715Z,4.63
2019-05-25T07:37:08.133Z,4.57
2019-05-25T07:39:38.380Z,4.70
2019-05-25T07:42:08.631Z,4.53
2019-05-25T07:44:39.091Z,4.87
2019-05-25T07:47:09.459Z,5.10
2019-05-25T07:49:40.327Z,5.37
2019-05-25T07:52:10.764Z,4.43
2019-05-25T07:54:41.198Z,4.47
2019-05-25T07:57:11.519Z,4.80
2019-05-25T07:59:41.862Z,4.30
2019-05-25T08:02:12.282Z,4.90
2019-05-25T08:04:42.617Z,5.13
2019-05-25T08:07:12.887Z,5.77
2019-05-25T08:09:43.202Z,5.63
2019-05-25T08:12:13.530Z,5.07
2019-05-25T08:14:45.153Z,4.87
2019-05-25T08:17:15.645Z,5.27
2019-05-25T08:19:45.997Z,4.70
2019-05-25T08:22:16.427Z,4.57
2019-05-25T08:24:46.764Z,4.63
2019-05-25T08:27:17.056Z,4.07
2019-05-25T08:29:47.467Z,4.80
2019-05-25T08:32:17.743Z,3.07
2019-05-25T08:34:48.100Z,3.43
2019-05-25T08:37:18.464Z,3.27
2019-05-25T08:39:48.787Z,3.47
2019-05-25T08:42:19.148Z,4.03
2019-05-25T08:44:49.399Z,3.87
2019-05-25T08:47:19.758Z,3.73
2019-05-25T08:49:50.099Z,3.10
2019-05-25T08:52:21.227Z,2.87
2019-05-25T08:54:51.713Z,3.10
2019-05-25T08:57:22.000Z,2.73
2019-05-25T08:59:52.366Z,3.10
2019-05-25T09:02:22.775Z,3.10
2019-05-25T09:04:53.161Z,3.40
2019-05-25T09:07:23.534Z,3.10
2019-05-25T09:09:53.818Z,3.10
2019-05-25T09:12:24.154Z,2.90
2019-05-25T09:14:54.521Z,3.13
2019-05-25T09:17:24.765Z,2.80
2019-05-25T09:19:55.109Z,3.27
2019-05-25T09:22:25.480Z,2.73
2019-05-25T09:24:55.749Z,3.20
2019-05-25T09:27:26.108Z,3.20
2019-05-25T09:29:56.521Z,3.03
2019-05-25T09:32:26.901Z,3.10
2019-05-25T09:34:57.312Z,3.00
2019-05-25T09:37:27.676Z,3.30
2019-05-25T09:39:58.996Z,3.30
2019-05-25T09:42:30.317Z,3.13
2019-05-25T09:45:00.670Z,3.33
2019-05-25T09:47:30.927Z,3.40
2019-05-25T09:50:01.195Z,3.50
2019-05-25T09:52:32.448Z,3.00
2019-05-25T09:55:03.987Z,3.30
2019-05-25T09:57:34.420Z,3.80
2019-05-25T10:00:06.926Z,3.47
2019-05-25T10:02:37.398Z,3.57
2019-05-25T10:05:08.043Z,3.37
2019-05-25T10:07:38.506Z,3.40
2019-05-25T10:10:10.061Z,3.87
2019-05-25T10:12:40.482Z,3.50
2019-05-25T10:15:11.322Z,3.57
2019-05-25T10:17:41.731Z,3.40
2019-05-25T10:20:12.452Z,4.13
2019-05-25T10:22:42.815Z,3.70
2019-05-25T10:25:13.301Z,4.10
2019-05-25T10:27:43.626Z,3.93
2019-05-25T10:30:14.089Z,3.50
2019-05-25T10:32:44.479Z,3.30
2019-05-25T10:35:16.111Z,3.77
2019-05-25T10:37:46.475Z,3.50
2019-05-25T10:40:18.065Z,3.40
2019-05-25T10:42:48.415Z,3.60
2019-05-25T10:45:18.947Z,3.27
2019-05-25T10:47:49.284Z,3.57
2019-05-25T10:50:20.808Z,3.40
2019-05-25T10:52:51.152Z,3.20
2019-05-25T10:55:21.675Z,3.00
2019-05-25T10:57:52.208Z,3.20
2019-05-25T11:00:23.020Z,3.33
2019-05-25T11:02:53.384Z,3.50
2019-05-25T11:05:24.036Z,2.50
2019-05-25T11:07:54.407Z,3.17
2019-05-25T11:10:24.728Z,3.47
2019-05-25T11:12:56.125Z,3.60
2019-05-25T11:15:26.854Z,3.10
2019-05-25T11:17:57.287Z,2.87
2019-05-25T11:20:27.716Z,3.20
2019-05-25T11:22:58.169Z,3.27
2019-05-25T11:25:28.599Z,2.80
2019-05-25T11:27:59.023Z,3.83
2019-05-25T11:30:29.423Z,3.10
2019-05-25T11:32:59.770Z,3.90
2019-05-25T11:35:30.180Z,3.93
2019-05-25T11:38:00.540Z,3.98
2019-05-25T11:40:30.896Z,3.33
2019-05-25T11:43:01.935Z,3.52
2019-05-25T11:45:32.296Z,2.73
2019-05-25T11:48:03.720Z,2.83
2019-05-25T11:50:34.042Z,3.33
2019-05-25T11:53:06.177Z,3.50
2019-05-25T11:55:36.780Z,2.90
2019-05-25T11:58:07.149Z,3.10
2019-05-25T12:00:37.753Z,3.20
2019-05-25T12:03:08.180Z,4.00
2019-05-25T12:05:38.549Z,3.43
2019-05-25T12:08:08.972Z,3.10
2019-05-25T12:10:39.247Z,2.70
2019-05-25T12:13:09.612Z,3.23
2019-05-25T12:15:40.037Z,2.80
2019-05-25T12:18:10.396Z,3.33
2019-05-25T12:20:40.860Z,3.83
2019-05-25T12:23:11.481Z,3.63
2019-05-25T12:25:42.178Z,2.90
2019-05-25T12:28:12.585Z,3.00
2019-05-25T12:30:42.928Z,3.17
2019-05-25T12:33:13.268Z,3.30
2019-05-25T12:35:45.295Z,3.63
2019-05-25T12:38:15.768Z,3.03
2019-05-25T12:40:53.767Z,3.20
2019-05-25T12:43:18.999Z,3.10
2019-05-25T12:45:49.380Z,3.10
2019-05-25T12:48:19.740Z,3.30
2019-05-25T12:50:50.151Z,3.40
2019-05-25T12:53:20.488Z,2.97
2019-05-25T12:55:51.817Z,3.00
2019-05-25T12:58:23.826Z,2.67
2019-05-25T13:00:56.341Z,2.67
2019-05-25T13:03:28.414Z,3.10
2019-05-25T13:05:58.548Z,2.60
2019-05-25T13:08:29.887Z,3.00
2019-05-25T13:11:00.260Z,2.40
2019-05-25T13:13:31.527Z,2.43
2019-05-25T13:16:02.131Z,2.83
2019-05-25T13:18:32.558Z,2.90
2019-05-25T13:21:02.997Z,2.57
2019-05-25T13:23:33.340Z,2.90
2019-05-25T13:26:05.230Z,3.10
2019-05-25T13:28:35.577Z,2.90
2019-05-25T13:31:11.729Z,2.70
2019-05-25T13:33:38.098Z,2.53
2019-05-25T13:36:08.417Z,3.00
2019-05-25T13:38:38.843Z,2.83
2019-05-25T13:41:09.238Z,2.20
2019-05-25T13:43:39.632Z,2.50
2019-05-25T13:46:11.147Z,2.73
2019-05-25T13:48:41.515Z,2.50
2019-05-25T13:51:11.901Z,2.60
2019-05-25T13:53:42.251Z,2.60
2019-05-25T13:56:12.614Z,2.33
2019-05-25T13:58:43.135Z,2.45
2019-05-25T14:01:27.532Z,2.70
2019-05-25T14:03:45.567Z,2.70
2019-05-25T14:06:15.939Z,2.60
2019-05-25T14:08:46.303Z,3.60
2019-05-25T14:11:16.635Z,2.90
2019-05-25T14:13:47.068Z,3.23
2019-05-25T14:16:17.364Z,2.93
2019-05-25T14:18:47.702Z,3.00
2019-05-25T14:21:18.140Z,2.73
2019-05-25T14:23:48.476Z,3.33
2019-05-25T14:26:18.760Z,3.00
2019-05-25T14:28:49.049Z,2.90
2019-05-25T14:31:19.501Z,2.60
2019-05-25T14:33:49.765Z,2.63
2019-05-25T14:36:20.096Z,2.23
2019-05-25T14:38:51.445Z,2.30
2019-05-25T14:41:21.718Z,2.60
2019-05-25T14:43:52.070Z,2.53
2019-05-25T14:46:28.008Z,2.80
2019-05-25T14:48:55.533Z,2.50
2019-05-25T14:51:25.913Z,2.30
2019-05-25T14:53:56.269Z,2.10
2019-05-25T14:56:26.686Z,2.27
2019-05-25T14:58:57.086Z,2.50
2019-05-25T15:01:27.397Z,2.37
2019-05-25T15:03:57.765Z,2.33
2019-05-25T15:06:28.149Z,2.67
2019-05-25T15:08:58.624Z,2.40
2019-05-25T15:11:28.978Z,2.67
2019-05-25T15:13:59.235Z,2.30
2019-05-25T15:16:29.503Z,2.33
2019-05-25T15:18:59.942Z,2.67
2019-05-25T15:21:32.205Z,3.10
2019-05-25T15:24:03.444Z,3.03
2019-05-25T15:26:33.884Z,2.50
2019-05-25T15:29:04.495Z,2.30
2019-05-25T15:31:35.211Z,2.90
2019-05-25T15:34:05.648Z,2.80
2019-05-25T15:36:36.128Z,2.87
2019-05-25T15:39:08.188Z,2.67
2019-05-25T15:41:38.612Z,2.77
2019-05-25T15:44:09.044Z,3.10
2019-05-25T15:46:39.566Z,2.70
2019-05-25T15:49:09.973Z,2.60
2019-05-25T15:51:41.473Z,2.50
2019-05-25T15:54:11.918Z,2.90
2019-05-25T15:56:42.344Z,3.33
2019-05-25T15:59:12.794Z,2.90
2019-05-25T16:01:43.209Z,3.10
2019-05-25T16:04:13.538Z,2.60
2019-05-25T16:06:43.899Z,2.93
2019-05-25T16:09:14.246Z,3.30
2019-05-25T16:11:44.522Z,2.80
2019-05-25T16:14:14.919Z,3.50
2019-05-25T16:16:45.280Z,3.30
2019-05-25T16:19:15.626Z,2.80
2019-05-25T16:21:46.015Z,2.90
2019-05-25T16:24:16.365Z,3.43
2019-05-25T16:26:46.891Z,3.83
2019-05-25T16:29:17.274Z,3.50
2019-05-25T16:31:47.546Z,3.60
2019-05-25T16:34:18.329Z,3.77
2019-05-25T16:36:48.776Z,3.73
2019-05-25T16:39:19.177Z,3.30
2019-05-25T16:41:49.669Z,3.57
2019-05-25T16:44:20.443Z,3.50
2019-05-25T16:46:51.879Z,4.30
2019-05-25T16:49:22.306Z,3.67
2019-05-25T16:51:52.766Z,4.30
2019-05-25T16:54:23.234Z,3.77
2019-05-25T16:56:53.759Z,3.93
2019-05-25T16:59:24.027Z,3.30
2019-05-25T17:01:54.387Z,3.43
2019-05-25T17:04:25.731Z,3.60
2019-05-25T17:06:56.349Z,3.87
2019-05-25T17:09:27.338Z,3.40
2019-05-25T17:11:57.707Z,3.60
2019-05-25T17:14:27.939Z,3.43
2019-05-25T17:16:58.314Z,3.50
2019-05-25T17:19:28.655Z,3.77
2019-05-25T17:21:58.983Z,3.70
2019-05-25T17:24:29.359Z,3.13
2019-05-25T17:26:59.726Z,3.60
2019-05-25T17:29:30.515Z,3.60
2019-05-25T17:32:02.646Z,3.97
2019-05-25T17:34:33.999Z,3.90
2019-05-25T17:37:04.437Z,3.50
2019-05-25T17:39:34.825Z,3.27
2019-05-25T17:42:05.397Z,3.03
2019-05-25T17:44:35.776Z,3.43
2019-05-25T17:47:06.229Z,3.60
2019-05-25T17:49:36.629Z,2.83
2019-05-25T17:52:07.070Z,3.90
2019-05-25T17:54:38.921Z,3.50
2019-05-25T17:57:11.865Z,3.60
2019-05-25T17:59:42.468Z,3.40
2019-05-25T18:02:12.900Z,3.63
2019-05-25T18:04:43.349Z,4.07
2019-05-25T18:07:13.775Z,3.30
2019-05-25T18:09:44.184Z,3.20
2019-05-25T18:12:14.637Z,3.30
2019-05-25T18:14:45.157Z,3.03
2019-05-25T18:17:15.603Z,3.83
2019-05-25T18:19:45.943Z,3.07
2019-05-25T18:22:16.373Z,2.83
2019-05-25T18:24:46.753Z,3.30
2019-05-25T18:27:17.164Z,3.33
2019-05-25T18:29:47.593Z,3.03
2019-05-25T18:32:17.953Z,3.10
2019-05-25T18:34:48.380Z,3.10
2019-05-25T18:37:18.641Z,3.40
2019-05-25T18:39:50.964Z,2.90
2019-05-25T18:42:22.133Z,3.00
2019-05-25T18:44:52.804Z,3.13
2019-05-25T18:47:23.309Z,2.87
2019-05-25T18:49:53.686Z,2.87
2019-05-25T18:52:24.079Z,2.80
2019-05-25T18:54:54.527Z,2.97
2019-05-25T18:57:24.921Z,2.77
2019-05-25T18:59:55.265Z,2.60
2019-05-25T19:02:25.614Z,2.73
2019-05-25T19:04:59.916Z,2.60
2019-05-25T19:07:28.110Z,2.50
2019-05-25T19:09:58.532Z,2.80
2019-05-25T19:12:28.899Z,2.70
2019-05-25T19:14:59.245Z,3.07
2019-05-25T19:17:29.618Z,2.90
2019-05-25T19:20:00.064Z,2.93
2019-05-25T19:22:32.030Z,2.70
2019-05-25T19:25:02.352Z,3.20
2019-05-25T19:27:32.770Z,3.60
2019-05-25T19:30:05.614Z,3.17
2019-05-25T19:32:36.054Z,3.30
2019-05-25T19:35:06.698Z,2.80
2019-05-25T19:37:37.454Z,3.07
2019-05-25T19:40:09.485Z,3.30
2019-05-25T19:42:40.919Z,3.40
2019-05-25T19:45:12.290Z,3.27
2019-05-25T19:47:42.551Z,3.87
2019-05-25T19:50:13.858Z,3.70
2019-05-25T19:52:44.214Z,3.60
2019-05-25T19:55:15.742Z,3.67
2019-05-25T19:57:46.095Z,3.53
2019-05-25T20:00:16.723Z,3.63
2019-05-25T20:02:47.142Z,3.80
2019-05-25T20:05:17.771Z,3.67
2019-05-25T20:07:48.209Z,3.63
2019-05-25T20:10:18.808Z,3.73
2019-05-25T20:12:49.146Z,3.60
2019-05-25T20:15:19.745Z,3.37
2019-05-25T20:17:50.165Z,3.53
2019-05-25T20:20:20.553Z,3.73
2019-05-25T20:22:50.821Z,3.60
2019-05-25T20:25:21.534Z,3.67
2019-05-25T20:27:51.866Z,3.43
2019-05-25T20:30:22.307Z,3.40
2019-05-25T20:32:52.634Z,3.27
2019-05-25T20:35:32.286Z,3.53
2019-05-25T20:37:55.170Z,3.50
2019-05-25T20:40:25.511Z,3.23
2019-05-25T20:42:55.855Z,3.70
2019-05-25T20:45:26.215Z,3.30
2019-05-25T20:47:56.554Z,3.40
2019-05-25T20:50:27.022Z,3.57
2019-05-25T20:52:57.401Z,3.30
2019-05-25T20:55:27.808Z,3.50
2019-05-25T20:57:58.067Z,3.47
2019-05-25T21:00:28.484Z,3.70
2019-05-25T21:03:05.875Z,3.70
2019-05-25T21:05:31.098Z,3.73
2019-05-25T21:08:01.466Z,3.63
2019-05-25T21:10:32.171Z,3.47
2019-05-25T21:13:02.599Z,3.63
2019-05-25T21:15:32.955Z,3.40
2019-05-25T21:18:03.504Z,3.80
2019-05-25T21:20:33.783Z,3.70
2019-05-25T21:23:04.120Z,4.33
2019-05-25T21:25:34.458Z,3.93
2019-05-25T21:28:04.905Z,4.13
2019-05-25T21:30:35.338Z,4.00
2019-05-25T21:33:05.940Z,3.90
2019-05-25T21:35:36.301Z,3.37
2019-05-25T21:38:06.721Z,4.00
2019-05-25T21:40:37.112Z,4.03
2019-05-25T21:43:07.465Z,3.90
2019-05-25T21:45:37.763Z,3.83
2019-05-25T21:48:08.155Z,4.10
2019-05-25T21:50:38.436Z,4.27
2019-05-25T21:53:11.103Z,4.00
2019-05-25T21:55:40.998Z,4.30
2019-05-25T21:58:12.438Z,4.50
2019-05-25T22:00:43.160Z,4.27
2019-05-25T22:03:13.631Z,4.97
2019-05-25T22:05:44.098Z,4.90
2019-05-25T22:08:14.557Z,4.40
2019-05-25T22:10:44.889Z,4.67
2019-05-25T22:13:27.875Z,4.43
2019-05-25T22:15:47.322Z,4.53
2019-05-25T22:18:17.585Z,3.93
2019-05-25T22:20:48.333Z,4.20
2019-05-25T22:23:18.669Z,4.13
2019-05-25T22:25:49.135Z,4.37
2019-05-25T22:28:19.417Z,4.37
2019-05-25T22:30:50.172Z,4.30
2019-05-25T22:33:20.553Z,4.20
2019-05-25T22:35:50.873Z,4.37
2019-05-25T22:38:22.261Z,5.10
2019-05-25T22:40:53.562Z,4.67
2019-05-25T22:43:23.843Z,4.50
2019-05-25T22:45:54.265Z,4.73
2019-05-25T22:48:24.601Z,5.17
2019-05-25T22:50:54.946Z,4.97
2019-05-25T22:53:25.351Z,4.60
2019-05-25T22:55:57.539Z,4.77
2019-05-25T22:58:28.853Z,5.37
2019-05-25T23:00:59.275Z,4.73
2019-05-25T23:03:29.535Z,4.73
2019-05-25T23:05:59.833Z,4.87
2019-05-25T23:08:31.045Z,5.10
2019-05-25T23:11:02.849Z,4.73
2019-05-25T23:13:33.184Z,4.60
2019-05-25T23:16:05.800Z,4.87
2019-05-25T23:18:36.065Z,5.30
2019-05-25T23:21:06.477Z,5.30
2019-05-25T23:23:37.327Z,5.27
2019-05-25T23:26:07.679Z,5.70
2019-05-25T23:28:37.929Z,5.90
2019-05-25T23:31:08.353Z,5.83
2019-05-25T23:33:38.690Z,5.63
2019-05-25T23:36:08.971Z,5.50
2019-05-25T23:38:39.366Z,5.30
2019-05-25T23:41:09.715Z,4.93
2019-05-25T23:43:40.042Z,5.63
2019-05-25T23:46:10.391Z,5.40
2019-05-25T23:48:40.731Z,5.70
2019-05-25T23:51:11.075Z,5.27
2019-05-25T23:53:41.470Z,6.53
2019-05-25T23:56:11.822Z,5.97
2019-05-25T23:58:42.062Z,5.93
